createdAt,value
2017-11-12T00:00:00.557Z,89.37
2017-11-12T00:02:28.181Z,88.99
2017-11-12T00:04:55.757Z,89.97
2017-11-12T00:07:23.327Z,89.35
2017-11-12T00:09:50.893Z,89.63
2017-11-12T00:12:18.462Z,89.14
2017-11-12T00:14:46.026Z,89.07
2017-11-12T00:17:13.587Z,89.07
2017-11-12T00:19:41.181Z,89.00
2017-11-12T00:22:08.748Z,89.55
2017-11-12T00:24:36.342Z,89.05
2017-11-12T00:27:03.907Z,88.88
2017-11-12T00:29:31.508Z,89.70
2017-11-12T00:31:59.082Z,88.37
2017-11-12T00:34:26.690Z,89.05
2017-11-12T00:36:54.251Z,88.72
2017-11-12T00:39:21.812Z,88.57
2017-11-12T00:41:49.379Z,88.43
2017-11-12T00:44:16.947Z,88.43
2017-11-12T00:46:44.513Z,88.78
2017-11-12T00:49:12.087Z,87.74
2017-11-12T00:51:39.705Z,88.10
2017-11-12T00:54:07.266Z,88.34
2017-11-12T00:56:34.833Z,87.86
2017-11-12T00:59:02.398Z,87.98
2017-11-12T01:01:30.007Z,88.24
2017-11-12T01:03:57.605Z,88.51
2017-11-12T01:06:25.161Z,87.97
2017-11-12T01:08:52.717Z,88.23
2017-11-12T01:11:20.314Z,88.22
2017-11-12T01:13:47.871Z,87.54
2017-11-12T01:16:15.467Z,88.52
2017-11-12T01:18:43.066Z,87.76
2017-11-12T01:21:10.694Z,88.27
2017-11-12T01:23:38.311Z,89.44
2017-11-12T01:26:05.875Z,88.30
2017-11-12T01:28:33.434Z,88.12
2017-11-12T01:31:01.086Z,88.24
2017-11-12T01:33:28.647Z,88.12
2017-11-12T01:35:56.213Z,87.98
2017-11-12T01:38:23.774Z,89.57
2017-11-12T01:40:51.338Z,88.78
2017-11-12T01:43:18.900Z,89.19
2017-11-12T01:45:46.502Z,89.66
2017-11-12T01:48:14.078Z,88.76
2017-11-12T01:50:41.652Z,88.98
2017-11-12T01:53:09.214Z,88.95
2017-11-12T01:55:36.774Z,89.15
2017-11-12T01:58:04.371Z,88.56
2017-11-12T02:00:31.942Z,88.74
2017-11-12T02:02:59.511Z,88.72
2017-11-12T02:05:27.074Z,88.21
2017-11-12T02:07:54.705Z,88.76
2017-11-12T02:10:22.301Z,88.40
2017-11-12T02:12:49.868Z,88.73
2017-11-12T02:15:17.481Z,87.84
2017-11-12T02:17:45.075Z,88.34
2017-11-12T02:20:12.675Z,88.74
2017-11-12T02:22:40.247Z,88.47
2017-11-12T02:25:07.805Z,88.37
2017-11-12T02:27:35.414Z,88.63
2017-11-12T02:30:03.741Z,88.64
2017-11-12T02:32:31.302Z,87.57
2017-11-12T02:34:58.886Z,88.03
2017-11-12T02:37:26.455Z,87.95
2017-11-12T02:39:54.922Z,88.30
2017-11-12T02:42:23.262Z,88.17
2017-11-12T02:44:50.861Z,88.34
2017-11-12T02:47:18.426Z,88.70
2017-11-12T02:49:45.981Z,89.21
2017-11-12T02:52:13.543Z,89.18
2017-11-12T02:54:41.877Z,89.13
2017-11-12T02:57:09.451Z,89.37
2017-11-12T02:59:37.842Z,89.73
2017-11-12T03:02:05.454Z,89.59
2017-11-12T03:04:33.017Z,89.99
2017-11-12T03:07:00.581Z,89.97
2017-11-12T03:09:28.142Z,90.26
2017-11-12T03:11:55.702Z,90.65
2017-11-12T03:14:23.298Z,91.13
2017-11-12T03:16:51.726Z,91.67
2017-11-12T03:19:19.346Z,91.27
2017-11-12T03:21:46.911Z,91.90
2017-11-12T03:24:14.479Z,91.85
2017-11-12T03:26:42.101Z,92.42
2017-11-12T03:29:09.706Z,93.20
2017-11-12T03:31:37.266Z,93.05
2017-11-12T03:34:04.843Z,93.78
2017-11-12T03:36:32.422Z,94.57
2017-11-12T03:38:59.986Z,94.81
2017-11-12T03:41:28.331Z,95.02
2017-11-12T03:43:55.892Z,95.09
2017-11-12T03:46:24.364Z,95.07
2017-11-12T03:48:51.933Z,94.87
2017-11-12T03:51:20.405Z,95.37
2017-11-12T03:53:48.022Z,94.74
2017-11-12T03:56:15.582Z,94.48
2017-11-12T03:58:43.941Z,94.62
2017-11-12T04:01:11.537Z,94.42
2017-11-12T04:03:40.000Z,94.01
2017-11-12T04:06:07.612Z,94.25
2017-11-12T04:08:35.190Z,94.83
2017-11-12T04:11:02.768Z,94.51
2017-11-12T04:13:31.253Z,93.81
2017-11-12T04:15:58.827Z,94.18
2017-11-12T04:18:26.422Z,94.85
2017-11-12T04:20:54.234Z,94.54
2017-11-12T04:23:21.835Z,94.54
2017-11-12T04:25:50.217Z,94.99
2017-11-12T04:28:17.817Z,94.97
2017-11-12T04:30:46.270Z,95.18
2017-11-12T04:33:13.865Z,95.25
2017-11-12T04:35:41.476Z,95.21
2017-11-12T04:38:09.981Z,95.18
2017-11-12T04:40:38.322Z,95.49
2017-11-12T04:43:05.897Z,95.67
2017-11-12T04:45:33.461Z,95.61
2017-11-12T04:48:01.030Z,95.91
2017-11-12T04:50:28.601Z,95.73
2017-11-12T04:52:56.215Z,95.79
2017-11-12T04:55:23.782Z,95.53
2017-11-12T04:57:51.345Z,95.34
2017-11-12T05:00:18.904Z,95.61
2017-11-12T05:02:46.470Z,95.30
2017-11-12T05:05:14.937Z,95.20
2017-11-12T05:07:42.526Z,95.37
2017-11-12T05:10:10.106Z,95.42
2017-11-12T05:12:37.695Z,95.34
2017-11-12T05:15:05.257Z,95.52
2017-11-12T05:17:32.816Z,95.49
2017-11-12T05:20:00.385Z,96.36
2017-11-12T05:22:27.953Z,95.02
2017-11-12T05:24:55.560Z,95.87
2017-11-12T05:27:23.121Z,95.32
2017-11-12T05:29:50.686Z,96.06
2017-11-12T05:32:18.257Z,96.49
2017-11-12T05:34:46.534Z,96.04
2017-11-12T05:37:14.114Z,95.73
2017-11-12T05:39:41.672Z,96.56
2017-11-12T05:42:09.271Z,96.23
2017-11-12T05:44:36.842Z,96.82
2017-11-12T05:47:04.412Z,96.31
2017-11-12T05:49:31.985Z,96.15
2017-11-12T05:51:59.552Z,96.78
2017-11-12T05:54:27.826Z,97.20
2017-11-12T05:56:56.217Z,96.59
2017-11-12T05:59:24.693Z,97.41
2017-11-12T06:01:52.279Z,97.41
2017-11-12T06:04:19.855Z,97.68
2017-11-12T06:06:47.435Z,98.13
2017-11-12T06:09:15.001Z,98.27
2017-11-12T06:11:42.616Z,98.06
2017-11-12T06:14:10.181Z,97.98
2017-11-12T06:16:37.764Z,97.97
2017-11-12T06:19:06.079Z,98.10
2017-11-12T06:21:33.663Z,98.11
2017-11-12T06:24:01.245Z,98.19
2017-11-12T06:26:28.841Z,98.09
2017-11-12T06:28:56.450Z,97.21
2017-11-12T06:31:24.058Z,96.41
2017-11-12T06:33:52.388Z,96.20
2017-11-12T06:36:20.762Z,95.98
2017-11-12T06:38:49.135Z,96.34
2017-11-12T06:41:17.538Z,96.86
2017-11-12T06:43:45.102Z,96.20
2017-11-12T06:46:12.671Z,96.33
2017-11-12T06:48:41.635Z,96.87
2017-11-12T06:51:09.996Z,96.93
2017-11-12T06:53:37.558Z,96.58
2017-11-12T06:56:05.242Z,96.75
2017-11-12T06:58:33.841Z,96.89
2017-11-12T07:01:02.146Z,96.09
2017-11-12T07:03:30.565Z,96.00
2017-11-12T07:05:58.877Z,96.39
2017-11-12T07:08:26.484Z,97.43
2017-11-12T07:10:54.873Z,97.14
2017-11-12T07:13:22.441Z,97.83
2017-11-12T07:15:50.007Z,97.10
2017-11-12T07:18:17.583Z,96.51
2017-11-12T07:20:45.189Z,96.92
2017-11-12T07:23:12.763Z,97.34
2017-11-12T07:25:40.367Z,96.91
2017-11-12T07:28:07.938Z,97.48
2017-11-12T07:30:36.415Z,97.35
2017-11-12T07:33:04.926Z,97.65
2017-11-12T07:35:32.596Z,97.32
2017-11-12T07:38:00.193Z,96.76
2017-11-12T07:40:27.826Z,96.78
2017-11-12T07:42:55.386Z,96.11
2017-11-12T07:45:22.943Z,95.96
2017-11-12T07:47:50.519Z,96.09
2017-11-12T07:50:18.117Z,95.69
2017-11-12T07:52:46.742Z,95.76
2017-11-12T07:55:15.124Z,95.23
2017-11-12T07:57:42.741Z,94.29
2017-11-12T08:00:10.290Z,93.99
2017-11-12T08:02:38.569Z,93.05
2017-11-12T08:05:06.125Z,93.20
2017-11-12T08:07:33.689Z,93.57
2017-11-12T08:10:01.245Z,91.93
2017-11-12T08:12:28.805Z,92.76
2017-11-12T08:14:56.389Z,91.86
2017-11-12T08:17:24.050Z,91.36
2017-11-12T08:19:51.614Z,90.14
2017-11-12T08:22:19.274Z,91.20
2017-11-12T08:24:46.833Z,90.81
2017-11-12T08:27:14.503Z,90.54
2017-11-12T08:29:42.066Z,89.71
2017-11-12T08:32:09.627Z,90.30
2017-11-12T08:34:37.282Z,90.67
2017-11-12T08:37:04.890Z,87.91
2017-11-12T08:39:32.450Z,87.88
2017-11-12T08:42:00.010Z,87.76
2017-11-12T08:44:27.610Z,88.25
2017-11-12T08:46:55.170Z,86.60
2017-11-12T08:49:22.735Z,85.93
2017-11-12T08:51:51.219Z,87.73
2017-11-12T08:54:18.824Z,85.18
2017-11-12T08:56:46.382Z,86.56
2017-11-12T08:59:13.988Z,85.55
2017-11-12T09:01:41.552Z,86.25
2017-11-12T09:04:09.112Z,85.43
2017-11-12T09:06:36.697Z,84.78
2017-11-12T09:09:04.257Z,85.63
2017-11-12T09:11:31.849Z,85.35
2017-11-12T09:13:59.413Z,83.87
2017-11-12T09:16:27.877Z,84.64
2017-11-12T09:19:03.665Z,84.82
2017-11-12T09:21:32.433Z,82.19
2017-11-12T09:24:00.066Z,83.09
2017-11-12T09:26:29.281Z,81.66
2017-11-12T09:28:56.948Z,82.93
2017-11-12T09:31:24.503Z,82.78
2017-11-12T09:33:52.973Z,81.58
2017-11-12T09:36:21.472Z,82.90
2017-11-12T09:38:51.044Z,84.36
2017-11-12T09:41:18.691Z,83.82
2017-11-12T09:43:46.294Z,82.31
2017-11-12T09:46:13.890Z,79.93
2017-11-12T09:48:42.437Z,83.46
2017-11-12T09:51:09.985Z,83.41
2017-11-12T09:53:37.537Z,82.43
2017-11-12T09:56:06.010Z,80.45
2017-11-12T09:58:34.357Z,82.69
2017-11-12T10:01:01.906Z,82.41
2017-11-12T10:03:29.470Z,80.08
2017-11-12T10:05:57.029Z,81.21
2017-11-12T10:08:24.662Z,81.04
2017-11-12T10:10:52.222Z,79.07
2017-11-12T10:13:19.773Z,81.23
2017-11-12T10:15:47.325Z,83.20
2017-11-12T10:18:14.972Z,82.11
2017-11-12T10:20:43.857Z,81.51
2017-11-12T10:23:11.423Z,83.90
2017-11-12T10:25:38.973Z,82.66
2017-11-12T10:28:06.525Z,82.44
2017-11-12T10:30:34.869Z,82.81
2017-11-12T10:33:03.349Z,80.38
2017-11-12T10:35:30.918Z,79.84
2017-11-12T10:37:58.473Z,79.95
2017-11-12T10:40:26.814Z,77.80
2017-11-12T10:42:54.375Z,80.40
2017-11-12T10:45:21.933Z,79.40
2017-11-12T10:47:49.491Z,81.57
2017-11-12T10:50:17.092Z,81.47
2017-11-12T10:52:44.649Z,80.43
2017-11-12T10:55:12.197Z,79.57
2017-11-12T10:57:39.748Z,79.54
2017-11-12T11:00:07.309Z,77.79
2017-11-12T11:02:34.869Z,79.01
2017-11-12T11:05:02.433Z,82.54
2017-11-12T11:07:30.008Z,78.77
2017-11-12T11:09:57.605Z,77.65
2017-11-12T11:12:25.159Z,78.62
2017-11-12T11:14:52.713Z,77.34
2017-11-12T11:17:20.265Z,80.35
2017-11-12T11:19:47.822Z,80.00
2017-11-12T11:22:15.377Z,79.63
2017-11-12T11:24:42.951Z,77.69
2017-11-12T11:27:10.512Z,78.00
2017-11-12T11:29:38.061Z,75.46
2017-11-12T11:32:05.617Z,77.15
2017-11-12T11:34:33.170Z,76.26
2017-11-12T11:37:00.728Z,76.61
2017-11-12T11:39:28.289Z,74.08
2017-11-12T11:41:55.839Z,74.87
2017-11-12T11:44:23.394Z,75.87
2017-11-12T11:46:50.946Z,74.00
2017-11-12T11:49:18.497Z,76.36
2017-11-12T11:51:46.062Z,76.97
2017-11-12T11:54:13.652Z,77.71
2017-11-12T11:56:41.205Z,78.43
2017-11-12T11:59:08.760Z,78.58
2017-11-12T12:01:36.355Z,77.02
2017-11-12T12:04:03.945Z,78.48
2017-11-12T12:06:31.507Z,79.88
2017-11-12T12:08:59.096Z,78.42
2017-11-12T12:11:26.656Z,78.89
2017-11-12T12:13:54.213Z,78.59
2017-11-12T12:16:22.571Z,82.43
2017-11-12T12:18:50.125Z,79.89
2017-11-12T12:21:18.467Z,80.15
2017-11-12T12:23:46.024Z,80.40
2017-11-12T12:26:13.626Z,80.23
2017-11-12T12:28:41.898Z,80.26
2017-11-12T12:31:09.497Z,79.87
2017-11-12T12:33:37.055Z,79.85
2017-11-12T12:36:04.610Z,82.05
2017-11-12T12:38:32.170Z,80.79
2017-11-12T12:40:59.717Z,81.39
2017-11-12T12:43:27.313Z,80.41
2017-11-12T12:45:54.873Z,80.30
2017-11-12T12:48:22.426Z,79.96
2017-11-12T12:50:49.984Z,81.71
2017-11-12T12:53:17.538Z,79.86
2017-11-12T12:55:45.147Z,80.55
2017-11-12T12:58:12.702Z,80.52
2017-11-12T13:00:40.249Z,81.25
2017-11-12T13:03:07.815Z,81.17
2017-11-12T13:05:36.286Z,82.80
2017-11-12T13:08:03.847Z,81.26
2017-11-12T13:10:32.114Z,82.60
2017-11-12T13:13:00.578Z,82.52
2017-11-12T13:15:28.928Z,82.83
2017-11-12T13:17:56.492Z,82.18
2017-11-12T13:20:24.051Z,81.96
2017-11-12T13:22:51.603Z,82.62
2017-11-12T13:25:19.996Z,82.04
2017-11-12T13:27:48.330Z,82.48
2017-11-12T13:30:16.780Z,81.80
2017-11-12T13:32:44.342Z,82.98
2017-11-12T13:35:12.749Z,81.85
2017-11-12T13:37:41.208Z,83.73
2017-11-12T13:40:09.554Z,83.33
2017-11-12T13:42:37.109Z,82.33
2017-11-12T13:45:04.702Z,84.17
2017-11-12T13:47:32.263Z,82.03
2017-11-12T13:49:59.818Z,82.22
2017-11-12T13:52:28.306Z,81.78
2017-11-12T13:54:56.626Z,82.50
2017-11-12T13:57:25.103Z,82.70
2017-11-12T13:59:53.459Z,84.20
2017-11-12T14:02:21.048Z,82.91
2017-11-12T14:04:48.606Z,82.64
2017-11-12T14:07:17.125Z,83.69
2017-11-12T14:09:45.390Z,83.29
2017-11-12T14:12:13.799Z,83.44
2017-11-12T14:14:41.346Z,83.33
2017-11-12T14:17:09.805Z,83.41
2017-11-12T14:19:37.404Z,84.39
2017-11-12T14:22:04.968Z,83.80
2017-11-12T14:24:33.357Z,84.93
2017-11-12T14:27:00.927Z,84.74
2017-11-12T14:29:28.525Z,85.26
2017-11-12T14:31:56.090Z,84.69
2017-11-12T14:34:23.650Z,86.14
2017-11-12T14:36:51.212Z,86.19
2017-11-12T14:39:18.770Z,87.04
2017-11-12T14:41:46.369Z,85.76
2017-11-12T14:44:13.918Z,86.34
2017-11-12T14:46:41.468Z,86.58
2017-11-12T14:49:09.057Z,86.61
2017-11-12T14:51:36.611Z,86.99
2017-11-12T14:54:04.986Z,86.26
2017-11-12T14:56:32.558Z,86.86
2017-11-12T14:59:00.114Z,88.23
2017-11-12T15:01:27.673Z,88.06
2017-11-12T15:03:56.041Z,88.81
2017-11-12T15:06:23.603Z,87.36
2017-11-12T15:08:51.150Z,87.74
2017-11-12T15:11:18.714Z,88.53
2017-11-12T15:13:46.266Z,89.01
2017-11-12T15:16:13.821Z,90.06
2017-11-12T15:18:41.956Z,90.06
2017-11-12T15:21:09.508Z,89.91
2017-11-12T15:23:37.069Z,90.57
2017-11-12T15:26:04.637Z,90.50
2017-11-12T15:28:32.238Z,91.19
2017-11-12T15:30:59.793Z,91.20
2017-11-12T15:33:27.350Z,91.20
2017-11-12T15:35:54.913Z,91.58
2017-11-12T15:38:22.479Z,90.94
2017-11-12T15:40:50.065Z,90.48
2017-11-12T15:43:18.466Z,90.42
2017-11-12T15:45:46.818Z,90.41
2017-11-12T15:48:14.378Z,90.98
2017-11-12T15:50:41.938Z,90.99
2017-11-12T15:53:09.498Z,91.75
2017-11-12T15:55:37.058Z,91.27
2017-11-12T15:58:05.406Z,91.60
2017-11-12T16:00:32.971Z,92.54
2017-11-12T16:03:00.532Z,92.03
2017-11-12T16:05:28.140Z,92.67
2017-11-12T16:07:55.747Z,92.76
2017-11-12T16:10:23.373Z,93.22
2017-11-12T16:12:50.933Z,92.14
2017-11-12T16:15:18.494Z,92.41
2017-11-12T16:17:46.147Z,92.86
2017-11-12T16:20:13.810Z,93.10
2017-11-12T16:22:42.158Z,92.93
2017-11-12T16:25:09.710Z,92.53
2017-11-12T16:27:37.318Z,92.74
2017-11-12T16:30:04.898Z,92.96
2017-11-12T16:32:32.460Z,92.54
2017-11-12T16:35:00.026Z,92.35
2017-11-12T16:37:27.623Z,92.51
2017-11-12T16:39:55.190Z,92.85
2017-11-12T16:42:22.759Z,92.35
2017-11-12T16:44:50.326Z,91.59
2017-11-12T16:47:18.703Z,92.14
2017-11-12T16:49:47.103Z,92.36
2017-11-12T16:52:14.668Z,92.55
2017-11-12T16:54:42.281Z,92.70
2017-11-12T16:57:09.841Z,92.98
2017-11-12T16:59:37.408Z,92.45
2017-11-12T17:02:05.289Z,92.93
2017-11-12T17:04:33.723Z,93.09
2017-11-12T17:07:01.353Z,92.38
2017-11-12T17:09:28.920Z,92.04
2017-11-12T17:11:56.521Z,91.71
2017-11-12T17:14:24.875Z,91.76
2017-11-12T17:16:52.429Z,92.45
2017-11-12T17:19:19.986Z,93.04
2017-11-12T17:21:47.540Z,92.14
2017-11-12T17:24:15.140Z,92.58
2017-11-12T17:26:42.709Z,91.31
2017-11-12T17:29:10.298Z,90.64
2017-11-12T17:31:37.857Z,91.06
2017-11-12T17:34:05.422Z,91.28
2017-11-12T17:36:33.749Z,91.26
2017-11-12T17:39:02.210Z,92.50
2017-11-12T17:41:29.806Z,92.39
2017-11-12T17:43:58.287Z,92.91
2017-11-12T17:46:26.654Z,92.57
2017-11-12T17:48:54.252Z,91.43
2017-11-12T17:51:21.848Z,92.20
2017-11-12T17:53:49.454Z,92.52
2017-11-12T17:56:17.023Z,92.66
2017-11-12T17:58:44.582Z,91.95
2017-11-12T18:01:12.163Z,92.89
2017-11-12T18:03:39.770Z,93.34
2017-11-12T18:06:07.337Z,93.16
2017-11-12T18:08:34.928Z,92.34
2017-11-12T18:11:02.578Z,93.39
2017-11-12T18:13:31.030Z,93.31
2017-11-12T18:15:59.497Z,94.08
2017-11-12T18:18:27.103Z,92.79
2017-11-12T18:20:54.677Z,92.24
2017-11-12T18:23:22.229Z,91.84
2017-11-12T18:25:49.884Z,91.88
2017-11-12T18:28:18.210Z,92.89
2017-11-12T18:30:46.705Z,91.98
2017-11-12T18:33:15.235Z,92.85
2017-11-12T18:35:42.865Z,92.88
2017-11-12T18:38:10.530Z,92.96
2017-11-12T18:40:38.089Z,92.84
2017-11-12T18:43:05.649Z,93.25
2017-11-12T18:45:33.217Z,93.44
2017-11-12T18:48:00.773Z,93.28
2017-11-12T18:50:28.332Z,93.28
2017-11-12T18:52:56.837Z,93.95
2017-11-12T18:55:41.502Z,94.02
2017-11-12T18:58:13.463Z,92.69
2017-11-12T19:00:46.685Z,93.42
2017-11-12T19:03:28.014Z,93.21
2017-11-12T19:06:01.195Z,94.33
2017-11-12T19:08:31.682Z,93.25
2017-11-12T19:10:59.229Z,93.43
2017-11-12T19:13:26.848Z,93.79
2017-11-12T19:15:54.412Z,93.82
2017-11-12T19:18:24.467Z,92.81
2017-11-12T19:24:03.006Z,94.53
2017-11-12T19:26:33.959Z,92.90
2017-11-12T19:29:02.322Z,94.11
2017-11-12T19:31:29.880Z,94.47
2017-11-12T19:33:58.339Z,94.50
2017-11-12T19:36:25.904Z,94.48
2017-11-12T19:38:54.312Z,93.92
2017-11-12T19:41:22.784Z,92.53
2017-11-12T19:43:50.450Z,92.80
2017-11-12T19:46:18.827Z,91.63
2017-11-12T19:48:47.298Z,92.15
2017-11-12T19:51:15.839Z,91.66
2017-11-12T19:53:43.405Z,93.07
2017-11-12T19:56:11.009Z,92.42
2017-11-12T19:58:38.598Z,92.16
2017-11-12T20:01:06.163Z,93.12
2017-11-12T20:03:33.797Z,93.62
2017-11-12T20:06:01.361Z,93.93
2017-11-12T20:08:28.956Z,94.06
2017-11-12T20:10:56.515Z,94.39
2017-11-12T20:13:24.122Z,95.03
2017-11-12T20:15:51.714Z,95.07
2017-11-12T20:18:19.278Z,94.65
2017-11-12T20:20:46.838Z,94.63
2017-11-12T20:23:14.407Z,95.19
2017-11-12T20:25:42.027Z,95.07
2017-11-12T20:28:09.589Z,94.82
2017-11-12T20:30:37.162Z,94.56
2017-11-12T20:33:04.733Z,93.14
2017-11-12T20:35:32.315Z,92.62
2017-11-12T20:38:00.027Z,93.03
2017-11-12T20:40:28.646Z,93.94
2017-11-12T20:42:56.235Z,93.69
2017-11-12T20:45:23.791Z,93.73
2017-11-12T20:47:51.341Z,93.75
2017-11-12T20:50:18.890Z,93.93
2017-11-12T20:52:46.463Z,94.07
2017-11-12T20:55:14.019Z,94.38
2017-11-12T20:57:41.575Z,94.41
2017-11-12T21:00:09.152Z,93.35
2017-11-12T21:02:37.625Z,92.65
2017-11-12T21:05:05.212Z,92.87
2017-11-12T21:07:32.763Z,94.03
2017-11-12T21:10:00.323Z,93.40
2017-11-12T21:12:27.879Z,92.73
2017-11-12T21:14:55.442Z,93.74
2017-11-12T21:17:23.045Z,94.35
2017-11-12T21:19:55.017Z,94.99
2017-11-12T21:22:23.520Z,95.32
2017-11-12T21:24:51.088Z,95.61
2017-11-12T21:27:25.013Z,95.53
2017-11-12T21:29:56.997Z,95.66
2017-11-12T21:35:45.026Z,94.63
2017-11-12T21:38:12.594Z,93.69
2017-11-12T21:40:40.165Z,93.73
2017-11-12T21:43:07.726Z,93.56
2017-11-12T21:45:35.331Z,94.00
2017-11-12T21:48:02.927Z,94.59
2017-11-12T21:50:30.566Z,95.12
2017-11-12T21:52:58.129Z,95.49
2017-11-12T21:55:25.690Z,95.54
2017-11-12T21:57:53.260Z,96.36
2017-11-12T22:00:20.943Z,96.30
2017-11-12T22:02:48.527Z,96.18
2017-11-12T22:05:16.093Z,96.01
2017-11-12T22:07:43.665Z,95.55
2017-11-12T22:10:11.263Z,94.72
2017-11-12T22:12:38.831Z,95.26
2017-11-12T22:15:06.427Z,95.96
2017-11-12T22:17:34.033Z,96.38
2017-11-12T22:20:01.696Z,96.43
2017-11-12T22:22:29.357Z,96.24
2017-11-12T22:24:56.920Z,96.35
2017-11-12T22:27:24.497Z,96.47
2017-11-12T22:29:52.180Z,96.51
2017-11-12T22:32:20.447Z,96.71
2017-11-12T22:34:48.022Z,96.73
2017-11-12T22:37:15.586Z,96.68
2017-11-12T22:39:43.150Z,97.10
2017-11-12T22:42:10.718Z,97.00
2017-11-12T22:44:38.283Z,96.92
2017-11-12T22:47:05.917Z,97.06
2017-11-12T22:49:33.544Z,95.46
2017-11-12T22:52:01.910Z,94.79
2017-11-12T22:54:30.407Z,95.39
2017-11-12T22:56:58.001Z,95.27
2017-11-12T22:59:25.571Z,95.27
2017-11-12T23:01:53.138Z,94.65
2017-11-12T23:04:21.463Z,94.40
2017-11-12T23:06:49.919Z,93.90
2017-11-12T23:09:18.253Z,94.44
2017-11-12T23:11:45.810Z,94.85
2017-11-12T23:14:13.366Z,93.07
2017-11-12T23:16:41.834Z,92.68
2017-11-12T23:19:09.389Z,93.54
2017-11-12T23:21:36.936Z,92.56
2017-11-12T23:24:04.530Z,92.62
2017-11-12T23:26:32.081Z,92.80
2017-11-12T23:28:59.634Z,93.27
2017-11-12T23:31:27.196Z,95.22
2017-11-12T23:33:54.753Z,94.77
2017-11-12T23:36:22.307Z,94.18
2017-11-12T23:38:49.861Z,92.34
2017-11-12T23:41:17.464Z,94.40
2017-11-12T23:43:45.014Z,95.31
2017-11-12T23:46:12.567Z,95.96
2017-11-12T23:48:40.238Z,96.11
2017-11-12T23:51:07.796Z,96.75
2017-11-12T23:53:35.349Z,96.42
2017-11-12T23:56:02.899Z,95.24
2017-11-12T23:58:30.449Z,94.37
